ARCHER ETNN-ETNN
Flight info
| Callsign | ARCHER |
|---|---|
| Flight time | N/A |
| Altitude | 27000 |
| Route | NN124 MOSUG DCT IBAGU DCT EKKIH DCT WTM VFR STAY01/0200 WTM/N0480F220 IFR GAT DCT MALYK Z529 HMM N853 ONUNE T473 BAMSU M170 AFNAF DCT NVO |
| Aircraft | EUFI/M-GILRTUVZ/S |
Departure
| Time | 2026-05-06 17:40 |
|---|---|
| Airport | Nörvenich Air Base (ETNN) |
Arrival
| Time | N/A |
|---|---|
| Airport | Nörvenich Air Base (ETNN) |
| Time | Latitude | Longitude | Altitude | Speed | Heading |
|---|---|---|---|---|---|
| 2026-05-06 17:08 | 50.83299 | 6.67496 | 332 ft | 0 kts | 339° |
| 2026-05-06 17:27 | 50.83300 | 6.67495 | 332 ft | 1 kts | 339° |
| 2026-05-06 17:27 | 50.83317 | 6.67487 | 330 ft | 2 kts | 348° |
| 2026-05-06 17:27 | 50.83331 | 6.67489 | 332 ft | 2 kts | 47° |
| 2026-05-06 17:27 | 50.83351 | 6.67524 | 331 ft | 7 kts | 14° |
| 2026-05-06 17:28 | 50.83418 | 6.67482 | 331 ft | 11 kts | 329° |
| 2026-05-06 17:28 | 50.83483 | 6.67441 | 333 ft | 8 kts | 336° |
| 2026-05-06 17:28 | 50.83523 | 6.67413 | 336 ft | 4 kts | 337° |
| 2026-05-06 17:28 | 50.83562 | 6.67390 | 335 ft | 11 kts | 338° |
| 2026-05-06 17:29 | 50.83643 | 6.67334 | 330 ft | 14 kts | 336° |
| 2026-05-06 17:29 | 50.83728 | 6.67277 | 332 ft | 12 kts | 327° |
| 2026-05-06 17:29 | 50.83762 | 6.67272 | 332 ft | 3 kts | 48° |
| 2026-05-06 17:29 | 50.83777 | 6.67320 | 330 ft | 6 kts | 70° |
| 2026-05-06 17:30 | 50.83787 | 6.67383 | 331 ft | 5 kts | 105° |
| 2026-05-06 17:30 | 50.83777 | 6.67410 | 332 ft | 0 kts | 122° |
| 2026-05-06 17:37 | 50.83774 | 6.67416 | 321 ft | 4 kts | 117° |
| 2026-05-06 17:37 | 50.83773 | 6.67456 | 337 ft | 4 kts | 77° |
| 2026-05-06 17:37 | 50.83781 | 6.67495 | 331 ft | 4 kts | 75° |
| 2026-05-06 17:38 | 50.83784 | 6.67558 | 332 ft | 7 kts | 95° |
| 2026-05-06 17:38 | 50.83770 | 6.67631 | 331 ft | 7 kts | 120° |
| 2026-05-06 17:38 | 50.83739 | 6.67683 | 332 ft | 6 kts | 144° |
| 2026-05-06 17:38 | 50.83698 | 6.67715 | 332 ft | 7 kts | 156° |
| 2026-05-06 17:39 | 50.83648 | 6.67723 | 331 ft | 8 kts | 202° |
| 2026-05-06 17:39 | 50.83630 | 6.67691 | 329 ft | 0 kts | 249° |
| 2026-05-06 17:39 | 50.83557 | 6.67420 | 336 ft | 96 kts | 246° |
| 2026-05-06 17:39 | 50.83074 | 6.65635 | 566 ft | 235 kts | 248° |
| 2026-05-06 17:40 | 50.82061 | 6.63055 | 2045 ft | 290 kts | 210° |
| 2026-05-06 17:40 | 50.80512 | 6.61173 | 5485 ft | 274 kts | 234° |
| 2026-05-06 17:40 | 50.79608 | 6.58342 | 9571 ft | 329 kts | 256° |
| 2026-05-06 17:40 | 50.79239 | 6.54566 | 11095 ft | 346 kts | 276° |
| 2026-05-06 17:41 | 50.79867 | 6.50955 | 11922 ft | 345 kts | 301° |
| 2026-05-06 17:41 | 50.81452 | 6.48216 | 12779 ft | 343 kts | 328° |
| 2026-05-06 17:41 | 50.83705 | 6.46959 | 13650 ft | 348 kts | 355° |
| 2026-05-06 17:41 | 50.86133 | 6.47410 | 14425 ft | 362 kts | 14° |
| 2026-05-06 17:42 | 50.88535 | 6.48689 | 15174 ft | 364 kts | 19° |
| 2026-05-06 17:42 | 50.91238 | 6.50333 | 15973 ft | 446 kts | 19° |
| 2026-05-06 17:42 | 50.94156 | 6.51793 | 16774 ft | 444 kts | 14° |
| 2026-05-06 17:42 | 50.97146 | 6.53249 | 17613 ft | 452 kts | 17° |
| 2026-05-06 17:43 | 51.00144 | 6.54839 | 18418 ft | 459 kts | 17° |
| 2026-05-06 17:43 | 51.03217 | 6.56374 | 19156 ft | 474 kts | 16° |
| 2026-05-06 17:43 | 51.06699 | 6.58143 | 19926 ft | 526 kts | 17° |
| 2026-05-06 17:43 | 51.10170 | 6.59940 | 20697 ft | 526 kts | 17° |
| 2026-05-06 17:44 | 51.13634 | 6.61693 | 21483 ft | 519 kts | 17° |
| 2026-05-06 17:44 | 51.17076 | 6.63464 | 22283 ft | 520 kts | 17° |
| 2026-05-06 17:44 | 51.20502 | 6.65224 | 23109 ft | 515 kts | 17° |
| 2026-05-06 17:44 | 51.23911 | 6.66971 | 23861 ft | 515 kts | 17° |
| 2026-05-06 17:45 | 51.27318 | 6.68729 | 24566 ft | 513 kts | 17° |
| 2026-05-06 17:45 | 51.30701 | 6.70472 | 25290 ft | 510 kts | 17° |
| 2026-05-06 17:45 | 51.34081 | 6.72247 | 26009 ft | 511 kts | 18° |
| 2026-05-06 17:45 | 51.37339 | 6.74512 | 26564 ft | 513 kts | 26° |
| 2026-05-06 17:46 | 51.40469 | 6.77254 | 26813 ft | 511 kts | 28° |
| 2026-05-06 17:46 | 51.43641 | 6.79817 | 26901 ft | 510 kts | 24° |
| 2026-05-06 17:46 | 51.46835 | 6.82290 | 26953 ft | 511 kts | 26° |
| 2026-05-06 17:46 | 51.49999 | 6.84895 | 26972 ft | 510 kts | 25° |
| 2026-05-06 17:47 | 51.53182 | 6.87407 | 26983 ft | 510 kts | 25° |
| 2026-05-06 17:47 | 51.56361 | 6.89961 | 26986 ft | 510 kts | 26° |
| 2026-05-06 17:47 | 51.59480 | 6.92485 | 26987 ft | 510 kts | 26° |
| 2026-05-06 17:47 | 51.62662 | 6.95029 | 26998 ft | 510 kts | 26° |
| 2026-05-06 17:48 | 51.65836 | 6.97596 | 26993 ft | 511 kts | 26° |
| 2026-05-06 17:48 | 51.69013 | 7.00163 | 26993 ft | 510 kts | 25° |
| 2026-05-06 17:48 | 51.72183 | 7.02723 | 26995 ft | 511 kts | 26° |
| 2026-05-06 17:48 | 51.75360 | 7.05300 | 26997 ft | 510 kts | 26° |
| 2026-05-06 17:49 | 51.78530 | 7.07873 | 26998 ft | 510 kts | 26° |
| 2026-05-06 17:49 | 51.81697 | 7.10444 | 27000 ft | 510 kts | 26° |
| 2026-05-06 17:49 | 51.84876 | 7.13031 | 27005 ft | 513 kts | 26° |
| 2026-05-06 17:49 | 51.88062 | 7.15632 | 27005 ft | 514 kts | 26° |
| 2026-05-06 17:50 | 51.91255 | 7.18239 | 27006 ft | 513 kts | 26° |
| 2026-05-06 17:50 | 51.94443 | 7.20845 | 27005 ft | 514 kts | 26° |
| 2026-05-06 17:50 | 51.97634 | 7.23460 | 27008 ft | 512 kts | 26° |
| 2026-05-06 17:50 | 52.00819 | 7.26075 | 27007 ft | 514 kts | 26° |
| 2026-05-06 17:51 | 52.04008 | 7.28695 | 27007 ft | 512 kts | 26° |
| 2026-05-06 17:51 | 52.07189 | 7.31313 | 27016 ft | 515 kts | 26° |
| 2026-05-06 17:51 | 52.10380 | 7.33945 | 27014 ft | 512 kts | 26° |
| 2026-05-06 17:51 | 52.13563 | 7.36575 | 27012 ft | 514 kts | 26° |
| 2026-05-06 17:52 | 52.16748 | 7.39208 | 27014 ft | 512 kts | 26° |
| 2026-05-06 17:52 | 52.19929 | 7.41845 | 27011 ft | 514 kts | 27° |
| 2026-05-06 17:52 | 52.23104 | 7.44479 | 27014 ft | 510 kts | 26° |
| 2026-05-06 17:52 | 52.26283 | 7.47120 | 27017 ft | 513 kts | 27° |
| 2026-05-06 17:53 | 52.29457 | 7.49766 | 27021 ft | 512 kts | 26° |
| 2026-05-06 17:53 | 52.32692 | 7.52212 | 27019 ft | 512 kts | 20° |
| 2026-05-06 17:53 | 52.36078 | 7.54011 | 27021 ft | 512 kts | 14° |
| 2026-05-06 17:53 | 52.39565 | 7.55050 | 27029 ft | 510 kts | 3° |
| 2026-05-06 17:54 | 52.43062 | 7.55341 | 27027 ft | 509 kts | 1° |
| 2026-05-06 17:54 | 52.46600 | 7.55771 | 27030 ft | 510 kts | 6° |
| 2026-05-06 17:54 | 52.50128 | 7.56405 | 27030 ft | 510 kts | 4° |
| 2026-05-06 17:54 | 52.53665 | 7.56860 | 27033 ft | 510 kts | 4° |
| 2026-05-06 17:55 | 52.57188 | 7.57418 | 27023 ft | 508 kts | 5° |
| 2026-05-06 17:55 | 52.60700 | 7.57953 | 27020 ft | 507 kts | 4° |
| 2026-05-06 17:55 | 52.64233 | 7.58463 | 27019 ft | 511 kts | 4° |
| 2026-05-06 17:55 | 52.67767 | 7.59012 | 27019 ft | 509 kts | 4° |
| 2026-05-06 17:56 | 52.71298 | 7.59543 | 27021 ft | 509 kts | 4° |
| 2026-05-06 17:56 | 52.74823 | 7.60070 | 27020 ft | 509 kts | 4° |
| 2026-05-06 17:56 | 52.78361 | 7.60613 | 27025 ft | 510 kts | 4° |
| 2026-05-06 17:56 | 52.81879 | 7.61145 | 27025 ft | 507 kts | 4° |
| 2026-05-06 17:57 | 52.85405 | 7.61679 | 27025 ft | 510 kts | 4° |
| 2026-05-06 17:57 | 52.88932 | 7.62219 | 27026 ft | 508 kts | 4° |
| 2026-05-06 17:57 | 52.92453 | 7.62754 | 27024 ft | 508 kts | 4° |
| 2026-05-06 17:57 | 52.96006 | 7.63297 | 27024 ft | 510 kts | 4° |
| 2026-05-06 17:58 | 52.99507 | 7.63833 | 27024 ft | 508 kts | 4° |
| 2026-05-06 17:58 | 53.01838 | 7.64191 | 27034 ft | 509 kts | 4° |
| 2026-05-06 17:58 | 53.05385 | 7.64735 | 27030 ft | 512 kts | 4° |
| 2026-05-06 17:58 | 53.08921 | 7.65277 | 27027 ft | 509 kts | 4° |
| 2026-05-06 17:59 | 53.12457 | 7.65826 | 27036 ft | 515 kts | 4° |
| 2026-05-06 17:59 | 53.16042 | 7.66375 | 27035 ft | 516 kts | 4° |
| 2026-05-06 17:59 | 53.19611 | 7.66924 | 27033 ft | 514 kts | 4° |
| 2026-05-06 17:59 | 53.23183 | 7.67480 | 27035 ft | 517 kts | 4° |
| 2026-05-06 18:00 | 53.26752 | 7.68032 | 27035 ft | 514 kts | 4° |
| 2026-05-06 18:00 | 53.30321 | 7.68586 | 27040 ft | 516 kts | 4° |
| 2026-05-06 18:00 | 53.33897 | 7.69141 | 27041 ft | 516 kts | 4° |
| 2026-05-06 18:00 | 53.37466 | 7.69685 | 27043 ft | 514 kts | 4° |
| 2026-05-06 18:01 | 53.41033 | 7.70211 | 27043 ft | 516 kts | 3° |
| 2026-05-06 18:01 | 53.44609 | 7.70731 | 27045 ft | 515 kts | 3° |
| 2026-05-06 18:01 | 53.48176 | 7.71246 | 27048 ft | 514 kts | 3° |
| 2026-05-06 18:01 | 53.51745 | 7.71762 | 27051 ft | 516 kts | 3° |
| 2026-05-06 18:02 | 53.55335 | 7.72285 | 27048 ft | 517 kts | 3° |
| 2026-05-06 18:02 | 53.58926 | 7.72809 | 26629 ft | 520 kts | 3° |
| 2026-05-06 18:02 | 53.62509 | 7.73340 | 25864 ft | 517 kts | 3° |
| 2026-05-06 18:02 | 53.66102 | 7.73880 | 25120 ft | 519 kts | 3° |
| 2026-05-06 18:03 | 53.69686 | 7.74430 | 24544 ft | 518 kts | 3° |
| 2026-05-06 18:03 | 53.73286 | 7.74989 | 24281 ft | 520 kts | 3° |
| 2026-05-06 18:03 | 53.76897 | 7.75554 | 24164 ft | 525 kts | 3° |
| 2026-05-06 18:03 | 53.80529 | 7.76121 | 24107 ft | 524 kts | 3° |
| 2026-05-06 18:04 | 53.83878 | 7.77578 | 23933 ft | 447 kts | 67° |
| 2026-05-06 18:04 | 53.83062 | 7.80430 | 22933 ft | 285 kts | 206° |
| 2026-05-06 18:04 | 53.81428 | 7.77973 | 21937 ft | 399 kts | 232° |
| 2026-05-06 18:04 | 53.79806 | 7.74096 | 20762 ft | 393 kts | 237° |
| 2026-05-06 18:05 | 53.78334 | 7.70269 | 20353 ft | 392 kts | 238° |
| 2026-05-06 18:05 | 53.76929 | 7.66424 | 20141 ft | 386 kts | 239° |
| 2026-05-06 18:05 | 53.75544 | 7.62589 | 20090 ft | 381 kts | 239° |
| 2026-05-06 18:05 | 53.74158 | 7.58756 | 20074 ft | 384 kts | 239° |
| 2026-05-06 18:06 | 53.72759 | 7.54906 | 20069 ft | 383 kts | 239° |
| 2026-05-06 18:06 | 53.71357 | 7.51060 | 20052 ft | 386 kts | 239° |
| 2026-05-06 18:06 | 53.69956 | 7.47230 | 20061 ft | 385 kts | 239° |
| 2026-05-06 18:06 | 53.68556 | 7.43411 | 20052 ft | 384 kts | 239° |
| 2026-05-06 18:07 | 53.67171 | 7.39634 | 20032 ft | 384 kts | 239° |
| 2026-05-06 18:07 | 53.65762 | 7.35797 | 20042 ft | 383 kts | 239° |
| 2026-05-06 18:07 | 53.64366 | 7.31974 | 20037 ft | 382 kts | 239° |
| 2026-05-06 18:07 | 53.62983 | 7.28146 | 20025 ft | 386 kts | 239° |
| 2026-05-06 18:08 | 53.61601 | 7.24322 | 20014 ft | 380 kts | 239° |
| 2026-05-06 18:08 | 53.60227 | 7.20525 | 19987 ft | 379 kts | 239° |
| 2026-05-06 18:08 | 53.58845 | 7.16734 | 20074 ft | 373 kts | 239° |
| 2026-05-06 18:08 | 53.57231 | 7.13248 | 19992 ft | 381 kts | 221° |
| 2026-05-06 18:09 | 53.54888 | 7.11084 | 19996 ft | 396 kts | 199° |
| 2026-05-06 18:09 | 53.52199 | 7.10687 | 19992 ft | 399 kts | 176° |
| 2026-05-06 18:09 | 53.49430 | 7.11246 | 20033 ft | 397 kts | 175° |
| 2026-05-06 18:09 | 53.46806 | 7.12650 | 20061 ft | 409 kts | 151° |
| 2026-05-06 18:10 | 53.44731 | 7.15886 | 20036 ft | 413 kts | 126° |
| 2026-05-06 18:10 | 53.43665 | 7.20326 | 19936 ft | 415 kts | 99° |
| 2026-05-06 18:10 | 53.43314 | 7.25144 | 20145 ft | 419 kts | 96° |
| 2026-05-06 18:10 | 53.43080 | 7.29984 | 20197 ft | 418 kts | 94° |
| 2026-05-06 18:11 | 53.42957 | 7.34863 | 20209 ft | 418 kts | 92° |
| 2026-05-06 18:11 | 53.42888 | 7.39706 | 20127 ft | 416 kts | 91° |
| 2026-05-06 18:11 | 53.42831 | 7.44568 | 20102 ft | 418 kts | 91° |
| 2026-05-06 18:11 | 53.43060 | 7.49332 | 20181 ft | 413 kts | 73° |
| 2026-05-06 18:12 | 53.44350 | 7.53666 | 20125 ft | 415 kts | 50° |
| 2026-05-06 18:12 | 53.46450 | 7.56916 | 20118 ft | 416 kts | 36° |
| 2026-05-06 18:12 | 53.48754 | 7.59816 | 20083 ft | 413 kts | 35° |
| 2026-05-06 18:12 | 53.51062 | 7.62694 | 20028 ft | 412 kts | 35° |
| 2026-05-06 18:13 | 53.53366 | 7.65566 | 19974 ft | 412 kts | 35° |
| 2026-05-06 18:13 | 53.55667 | 7.68423 | 20094 ft | 413 kts | 35° |
| 2026-05-06 18:13 | 53.57983 | 7.71275 | 20034 ft | 412 kts | 34° |
| 2026-05-06 18:13 | 53.60302 | 7.74124 | 19972 ft | 411 kts | 34° |
| 2026-05-06 18:14 | 53.62577 | 7.76953 | 19485 ft | 408 kts | 34° |
| 2026-05-06 18:14 | 53.64849 | 7.79797 | 18905 ft | 405 kts | 35° |
| 2026-05-06 18:14 | 53.67330 | 7.81693 | 18400 ft | 398 kts | 5° |
| 2026-05-06 18:14 | 53.69990 | 7.81239 | 18145 ft | 374 kts | 334° |
| 2026-05-06 18:15 | 53.72057 | 7.78550 | 17996 ft | 373 kts | 305° |
| 2026-05-06 18:15 | 53.73056 | 7.74607 | 17877 ft | 377 kts | 279° |
| 2026-05-06 18:15 | 53.72998 | 7.70254 | 17971 ft | 380 kts | 262° |
| 2026-05-06 18:15 | 53.72607 | 7.65892 | 17987 ft | 380 kts | 261° |
| 2026-05-06 18:16 | 53.72194 | 7.61543 | 18047 ft | 377 kts | 261° |
| 2026-05-06 18:16 | 53.71757 | 7.57216 | 18061 ft | 374 kts | 261° |
| 2026-05-06 18:16 | 53.71317 | 7.52911 | 18076 ft | 370 kts | 261° |
| 2026-05-06 18:16 | 53.70875 | 7.48595 | 18090 ft | 371 kts | 261° |
| 2026-05-06 18:17 | 53.70431 | 7.44261 | 18082 ft | 380 kts | 260° |
| 2026-05-06 18:17 | 53.69987 | 7.39924 | 18070 ft | 372 kts | 261° |
| 2026-05-06 18:17 | 53.69547 | 7.35615 | 18074 ft | 368 kts | 261° |
| 2026-05-06 18:17 | 53.69116 | 7.31367 | 18068 ft | 371 kts | 261° |
| 2026-05-06 18:18 | 53.68682 | 7.27076 | 18063 ft | 368 kts | 261° |
| 2026-05-06 18:18 | 53.68248 | 7.22770 | 18097 ft | 377 kts | 261° |
| 2026-05-06 18:18 | 53.67820 | 7.18493 | 18104 ft | 373 kts | 261° |
| 2026-05-06 18:18 | 53.67220 | 7.14323 | 17956 ft | 365 kts | 246° |
| 2026-05-06 18:19 | 53.65636 | 7.10946 | 17936 ft | 376 kts | 218° |
| 2026-05-06 18:19 | 53.63294 | 7.08915 | 18064 ft | 383 kts | 198° |
| 2026-05-06 18:19 | 53.60636 | 7.08342 | 17990 ft | 385 kts | 182° |
| 2026-05-06 18:19 | 53.57926 | 7.08346 | 18049 ft | 388 kts | 182° |
| 2026-05-06 18:20 | 53.55229 | 7.08378 | 18058 ft | 390 kts | 183° |
| 2026-05-06 18:20 | 53.52529 | 7.08417 | 18096 ft | 389 kts | 182° |
| 2026-05-06 18:20 | 53.49805 | 7.08707 | 18085 ft | 394 kts | 171° |
| 2026-05-06 18:20 | 53.47254 | 7.10288 | 18086 ft | 400 kts | 152° |
| 2026-05-06 18:21 | 53.45062 | 7.13089 | 18014 ft | 393 kts | 134° |
| 2026-05-06 18:21 | 53.43438 | 7.16923 | 17994 ft | 405 kts | 117° |
| 2026-05-06 18:21 | 53.42560 | 7.21341 | 17948 ft | 408 kts | 98° |
| 2026-05-06 18:21 | 53.42566 | 7.26051 | 17953 ft | 403 kts | 82° |
| 2026-05-06 18:22 | 53.42999 | 7.30692 | 17958 ft | 404 kts | 80° |
| 2026-05-06 18:22 | 53.43461 | 7.35348 | 17988 ft | 402 kts | 80° |
| 2026-05-06 18:22 | 53.43921 | 7.39976 | 18005 ft | 419 kts | 80° |
| 2026-05-06 18:22 | 53.44455 | 7.45353 | 18122 ft | 467 kts | 80° |
| 2026-05-06 18:23 | 53.45009 | 7.50730 | 18198 ft | 464 kts | 80° |
| 2026-05-06 18:23 | 53.45577 | 7.56065 | 18120 ft | 466 kts | 79° |
| 2026-05-06 18:23 | 53.46161 | 7.61422 | 18189 ft | 466 kts | 79° |
| 2026-05-06 18:23 | 53.46754 | 7.66751 | 18168 ft | 466 kts | 79° |
| 2026-05-06 18:24 | 53.47352 | 7.72098 | 18181 ft | 465 kts | 79° |
| 2026-05-06 18:24 | 53.47941 | 7.77348 | 18123 ft | 465 kts | 79° |
| 2026-05-06 18:24 | 53.48584 | 7.83068 | 18089 ft | 531 kts | 79° |
| 2026-05-06 18:24 | 53.49359 | 7.89063 | 18061 ft | 525 kts | 77° |
| 2026-05-06 18:25 | 53.50274 | 7.94991 | 17979 ft | 523 kts | 75° |
| 2026-05-06 18:25 | 53.51288 | 8.00818 | 18401 ft | 521 kts | 73° |
| 2026-05-06 18:25 | 53.52399 | 8.06690 | 19236 ft | 529 kts | 72° |
| 2026-05-06 18:25 | 53.53569 | 8.12589 | 19993 ft | 538 kts | 71° |
| 2026-05-06 18:26 | 53.54762 | 8.18579 | 20123 ft | 537 kts | 71° |
| 2026-05-06 18:26 | 53.55965 | 8.24534 | 20233 ft | 528 kts | 71° |
| 2026-05-06 18:26 | 53.57069 | 8.30035 | 20069 ft | 480 kts | 71° |
| 2026-05-06 18:26 | 53.58140 | 8.35328 | 20066 ft | 474 kts | 71° |
| 2026-05-06 18:27 | 53.59207 | 8.40593 | 20063 ft | 473 kts | 71° |
| 2026-05-06 18:27 | 53.60266 | 8.45819 | 20053 ft | 473 kts | 71° |
| 2026-05-06 18:27 | 53.61344 | 8.51067 | 20086 ft | 473 kts | 70° |
| 2026-05-06 18:27 | 53.62455 | 8.56272 | 20113 ft | 473 kts | 69° |
| 2026-05-06 18:28 | 53.63982 | 8.61103 | 20127 ft | 463 kts | 44° |
| 2026-05-06 18:28 | 53.66844 | 8.63343 | 20036 ft | 466 kts | 358° |
| 2026-05-06 18:28 | 53.69556 | 8.61028 | 20084 ft | 470 kts | 308° |
| 2026-05-06 18:28 | 53.71553 | 8.56733 | 19993 ft | 463 kts | 306° |
| 2026-05-06 18:29 | 53.73478 | 8.52440 | 19938 ft | 454 kts | 306° |
| 2026-05-06 18:29 | 53.75241 | 8.47970 | 19992 ft | 452 kts | 295° |
| 2026-05-06 18:29 | 53.76267 | 8.42939 | 19988 ft | 454 kts | 280° |
| 2026-05-06 18:29 | 53.76459 | 8.37676 | 20042 ft | 453 kts | 267° |
| 2026-05-06 18:30 | 53.75953 | 8.32492 | 20034 ft | 443 kts | 252° |
| 2026-05-06 18:30 | 53.74806 | 8.27613 | 20037 ft | 442 kts | 247° |
| 2026-05-06 18:30 | 53.73633 | 8.22919 | 20003 ft | 410 kts | 247° |
| 2026-05-06 18:30 | 53.72534 | 8.18455 | 19978 ft | 411 kts | 248° |
| 2026-05-06 18:31 | 53.71446 | 8.13987 | 20062 ft | 417 kts | 248° |
| 2026-05-06 18:31 | 53.70394 | 8.09531 | 20062 ft | 414 kts | 248° |
| 2026-05-06 18:31 | 53.69326 | 8.05053 | 20064 ft | 413 kts | 248° |
| 2026-05-06 18:31 | 53.68263 | 8.00562 | 20058 ft | 412 kts | 248° |
| 2026-05-06 18:32 | 53.67212 | 7.96056 | 20040 ft | 411 kts | 249° |
| 2026-05-06 18:32 | 53.66246 | 7.91512 | 20020 ft | 410 kts | 251° |
| 2026-05-06 18:32 | 53.65219 | 7.87028 | 20000 ft | 414 kts | 247° |
| 2026-05-06 18:32 | 53.63935 | 7.82749 | 19921 ft | 396 kts | 237° |
| 2026-05-06 18:33 | 53.62053 | 7.79493 | 20008 ft | 396 kts | 217° |
| 2026-05-06 18:33 | 53.59677 | 7.77266 | 19893 ft | 389 kts | 203° |
| 2026-05-06 18:33 | 53.57117 | 7.76501 | 19926 ft | 377 kts | 182° |
| 2026-05-06 18:33 | 53.54538 | 7.77152 | 19926 ft | 374 kts | 163° |
| 2026-05-06 18:34 | 53.52171 | 7.79062 | 19968 ft | 380 kts | 148° |
| 2026-05-06 18:34 | 53.50225 | 7.82189 | 20224 ft | 416 kts | 128° |
| 2026-05-06 18:34 | 53.48764 | 7.86701 | 20382 ft | 464 kts | 110° |
| 2026-05-06 18:34 | 53.48295 | 7.91925 | 20566 ft | 420 kts | 84° |
| 2026-05-06 18:35 | 53.49014 | 7.96803 | 20722 ft | 442 kts | 69° |
| 2026-05-06 18:35 | 53.50152 | 8.01560 | 20921 ft | 405 kts | 66° |
| 2026-05-06 18:35 | 53.51255 | 8.05698 | 20904 ft | 376 kts | 65° |
| 2026-05-06 18:35 | 53.52278 | 8.09664 | 20880 ft | 380 kts | 67° |
| 2026-05-06 18:36 | 53.53273 | 8.14197 | 20988 ft | 422 kts | 71° |
| 2026-05-06 18:36 | 53.54229 | 8.18757 | 20920 ft | 407 kts | 69° |
| 2026-05-06 18:36 | 53.55154 | 8.23167 | 20849 ft | 410 kts | 70° |
| 2026-05-06 18:36 | 53.56096 | 8.27445 | 20804 ft | 368 kts | 69° |
| 2026-05-06 18:37 | 53.57065 | 8.31848 | 20870 ft | 382 kts | 70° |
| 2026-05-06 18:37 | 53.57615 | 8.34361 | 20845 ft | 321 kts | 70° |
| 2026-05-06 18:37 | 53.58929 | 8.40245 | 20909 ft | 436 kts | 68° |
| 2026-05-06 18:37 | 53.59887 | 8.44514 | 20834 ft | 325 kts | 70° |
| 2026-05-06 18:38 | 53.60637 | 8.47839 | 20634 ft | 335 kts | 68° |
| 2026-05-06 18:38 | 53.61598 | 8.52062 | 20634 ft | 441 kts | 69° |
| 2026-05-06 18:38 | 53.62656 | 8.56870 | 20751 ft | 455 kts | 69° |
| 2026-05-06 18:38 | 53.63731 | 8.61670 | 20835 ft | 403 kts | 70° |
| 2026-05-06 18:39 | 53.64723 | 8.66090 | 20848 ft | 386 kts | 67° |
| 2026-05-06 18:39 | 53.65699 | 8.70396 | 20873 ft | 397 kts | 69° |
| 2026-05-06 18:39 | 53.66660 | 8.74645 | 20886 ft | 377 kts | 67° |
| 2026-05-06 18:40 | 53.69847 | 8.81705 | 20798 ft | 374 kts | 33° |
| 2026-05-06 18:40 | 53.72228 | 8.83702 | 20806 ft | 402 kts | 16° |
| 2026-05-06 18:40 | 53.74831 | 8.84358 | 20797 ft | 398 kts | 357° |
| 2026-05-06 18:40 | 53.77446 | 8.83599 | 20808 ft | 395 kts | 339° |
| 2026-05-06 18:41 | 53.79719 | 8.81603 | 20823 ft | 390 kts | 321° |
| 2026-05-06 18:41 | 53.81590 | 8.78468 | 20840 ft | 361 kts | 304° |
| 2026-05-06 18:41 | 53.82815 | 8.74585 | 20845 ft | 369 kts | 287° |
| 2026-05-06 18:41 | 53.83290 | 8.70375 | 20861 ft | 356 kts | 271° |
| 2026-05-06 18:42 | 53.83035 | 8.66107 | 20850 ft | 368 kts | 253° |
| 2026-05-06 18:42 | 53.82190 | 8.62063 | 20872 ft | 359 kts | 250° |
| 2026-05-06 18:42 | 53.81346 | 8.57965 | 20880 ft | 358 kts | 251° |
| 2026-05-06 18:42 | 53.80496 | 8.53817 | 20879 ft | 357 kts | 250° |
| 2026-05-06 18:43 | 53.79613 | 8.49773 | 20906 ft | 361 kts | 249° |
| 2026-05-06 18:43 | 53.79027 | 8.47182 | 20893 ft | 371 kts | 249° |
| 2026-05-06 18:43 | 53.77825 | 8.41755 | 20921 ft | 345 kts | 250° |
| 2026-05-06 18:43 | 53.77282 | 8.39251 | 20860 ft | 357 kts | 249° |
| 2026-05-06 18:44 | 53.76265 | 8.34984 | 20904 ft | 398 kts | 248° |
| 2026-05-06 18:44 | 53.75378 | 8.31103 | 20856 ft | 358 kts | 249° |
| 2026-05-06 18:44 | 53.74480 | 8.27123 | 20524 ft | 341 kts | 249° |
| 2026-05-06 18:44 | 53.73656 | 8.23464 | 20026 ft | 339 kts | 249° |
| 2026-05-06 18:45 | 53.72755 | 8.19502 | 19952 ft | 383 kts | 249° |
| 2026-05-06 18:45 | 53.71745 | 8.15082 | 20040 ft | 424 kts | 249° |
| 2026-05-06 18:45 | 53.70624 | 8.10218 | 19952 ft | 466 kts | 249° |
| 2026-05-06 18:45 | 53.69540 | 8.05519 | 19661 ft | 405 kts | 249° |
| 2026-05-06 18:46 | 53.68526 | 8.01131 | 19331 ft | 389 kts | 249° |
| 2026-05-06 18:46 | 53.67546 | 7.96892 | 18985 ft | 385 kts | 249° |
| 2026-05-06 18:46 | 53.66582 | 7.92725 | 18645 ft | 379 kts | 249° |
| 2026-05-06 18:46 | 53.65623 | 7.88581 | 18298 ft | 379 kts | 249° |
| 2026-05-06 18:47 | 53.64664 | 7.84431 | 17923 ft | 370 kts | 249° |
| 2026-05-06 18:47 | 53.63721 | 7.80334 | 17957 ft | 378 kts | 249° |
| 2026-05-06 18:47 | 53.63011 | 7.76220 | 17943 ft | 366 kts | 264° |
| 2026-05-06 18:47 | 53.62743 | 7.71760 | 17870 ft | 375 kts | 265° |
| 2026-05-06 18:48 | 53.62283 | 7.67401 | 17840 ft | 377 kts | 250° |
| 2026-05-06 18:48 | 53.60981 | 7.63622 | 17882 ft | 376 kts | 229° |
| 2026-05-06 18:48 | 53.58962 | 7.60819 | 17803 ft | 376 kts | 211° |
| 2026-05-06 18:48 | 53.56445 | 7.59252 | 17577 ft | 386 kts | 192° |
| 2026-05-06 18:49 | 53.53784 | 7.59140 | 16964 ft | 378 kts | 170° |
| 2026-05-06 18:49 | 53.51292 | 7.60756 | 16833 ft | 389 kts | 148° |
| 2026-05-06 18:49 | 53.49316 | 7.63793 | 16561 ft | 376 kts | 124° |
| 2026-05-06 18:49 | 53.48210 | 7.68045 | 16624 ft | 401 kts | 101° |
| 2026-05-06 18:50 | 53.48200 | 7.72645 | 16749 ft | 402 kts | 77° |
| 2026-05-06 18:50 | 53.48915 | 7.77117 | 16904 ft | 392 kts | 72° |
| 2026-05-06 18:50 | 53.49783 | 7.81480 | 16926 ft | 396 kts | 70° |
| 2026-05-06 18:50 | 53.50752 | 7.85798 | 16952 ft | 394 kts | 68° |
| 2026-05-06 18:51 | 53.51767 | 7.90054 | 16968 ft | 395 kts | 68° |
| 2026-05-06 18:51 | 53.52792 | 7.94331 | 16963 ft | 392 kts | 68° |
| 2026-05-06 18:51 | 53.53818 | 7.98583 | 16977 ft | 392 kts | 67° |
| 2026-05-06 18:51 | 53.54837 | 8.02807 | 16994 ft | 397 kts | 67° |
| 2026-05-06 18:52 | 53.55865 | 8.07068 | 17025 ft | 391 kts | 68° |
| 2026-05-06 18:52 | 53.56895 | 8.11340 | 17040 ft | 395 kts | 67° |
| 2026-05-06 18:52 | 53.57944 | 8.15686 | 17068 ft | 397 kts | 67° |
| 2026-05-06 18:52 | 53.59391 | 8.19484 | 16843 ft | 380 kts | 22° |
| 2026-05-06 18:53 | 53.61222 | 8.18898 | 16329 ft | 197 kts | 298° |
| 2026-05-06 18:53 | 53.62057 | 8.16077 | 13673 ft | 335 kts | 287° |
| 2026-05-06 18:53 | 53.62450 | 8.11251 | 11139 ft | 474 kts | 278° |
| 2026-05-06 18:53 | 53.61396 | 8.08929 | 13171 ft | 27 kts | 349° |
| 2026-05-06 18:54 | 53.62085 | 8.08561 | 14253 ft | 188 kts | 334° |
| 2026-05-06 18:54 | 53.63410 | 8.07371 | 13672 ft | 241 kts | 326° |
| 2026-05-06 18:54 | 53.65058 | 8.05436 | 13685 ft | 347 kts | 323° |
| 2026-05-06 18:54 | 53.67378 | 8.02517 | 13698 ft | 490 kts | 322° |
| 2026-05-06 18:55 | 53.70560 | 8.02027 | 12070 ft | 570 kts | 61° |
| 2026-05-06 18:55 | 53.70909 | 8.08986 | 11059 ft | 594 kts | 92° |
| 2026-05-06 18:55 | 53.69130 | 8.12406 | 12211 ft | 421 kts | 212° |
| 2026-05-06 18:55 | 53.67193 | 8.10525 | 12083 ft | 268 kts | 97° |
| 2026-05-06 18:56 | 53.67959 | 8.11576 | 10502 ft | 218 kts | 276° |
| 2026-05-06 18:56 | 53.66920 | 8.10291 | 9029 ft | 291 kts | 181° |
| 2026-05-06 18:56 | 53.64211 | 8.09651 | 9177 ft | 477 kts | 226° |
| 2026-05-06 18:56 | 53.63580 | 8.04226 | 10799 ft | 456 kts | 313° |
| 2026-05-06 18:57 | 53.64288 | 8.01887 | 20346 ft | 304 kts | 262° |
| 2026-05-06 18:57 | 53.63298 | 7.98699 | 15039 ft | 252 kts | 128° |
| 2026-05-06 18:57 | 53.63686 | 8.01555 | 12421 ft | 354 kts | 59° |
| 2026-05-06 18:57 | 53.63218 | 8.04524 | 11976 ft | 337 kts | 176° |
| 2026-05-06 18:58 | 53.61132 | 8.02673 | 11983 ft | 378 kts | 238° |
| 2026-05-06 18:58 | 53.59831 | 7.98228 | 13779 ft | 447 kts | 247° |
| 2026-05-06 18:58 | 53.58592 | 7.93516 | 14498 ft | 439 kts | 246° |
| 2026-05-06 18:58 | 53.57348 | 7.88784 | 14899 ft | 444 kts | 247° |
| 2026-05-06 18:59 | 53.56149 | 7.84285 | 14962 ft | 392 kts | 246° |
| 2026-05-06 18:59 | 53.55103 | 7.80394 | 14899 ft | 337 kts | 246° |
| 2026-05-06 18:59 | 53.54170 | 7.76956 | 14850 ft | 319 kts | 247° |
| 2026-05-06 18:59 | 53.53211 | 7.73462 | 15017 ft | 343 kts | 246° |
| 2026-05-06 19:00 | 53.52209 | 7.69789 | 15217 ft | 345 kts | 247° |
| 2026-05-06 19:00 | 53.51206 | 7.66101 | 15218 ft | 349 kts | 246° |
| 2026-05-06 19:00 | 53.50174 | 7.62298 | 15153 ft | 366 kts | 246° |
| 2026-05-06 19:00 | 53.49109 | 7.58303 | 14999 ft | 383 kts | 248° |
| 2026-05-06 19:01 | 53.48028 | 7.54227 | 14927 ft | 377 kts | 247° |
| 2026-05-06 19:01 | 53.46994 | 7.50334 | 14939 ft | 363 kts | 247° |
| 2026-05-06 19:01 | 53.45982 | 7.46532 | 14926 ft | 351 kts | 247° |
| 2026-05-06 19:01 | 53.44985 | 7.42784 | 14897 ft | 354 kts | 247° |
| 2026-05-06 19:02 | 53.43976 | 7.38992 | 14872 ft | 358 kts | 247° |
| 2026-05-06 19:02 | 53.42954 | 7.35148 | 14880 ft | 363 kts | 246° |
| 2026-05-06 19:02 | 53.42969 | 7.32220 | 15469 ft | 212 kts | 0° |
| 2026-05-06 19:02 | 53.43979 | 7.33611 | 15176 ft | 223 kts | 65° |
| 2026-05-06 19:03 | 53.44802 | 7.36158 | 15621 ft | 283 kts | 54° |
| 2026-05-06 19:03 | 53.46071 | 7.39314 | 16169 ft | 373 kts | 54° |
| 2026-05-06 19:03 | 53.47524 | 7.43055 | 16890 ft | 380 kts | 58° |
| 2026-05-06 19:03 | 53.48730 | 7.47103 | 17508 ft | 399 kts | 66° |
| 2026-05-06 19:04 | 53.49822 | 7.51670 | 17964 ft | 435 kts | 67° |
| 2026-05-06 19:04 | 53.50885 | 7.56075 | 17968 ft | 378 kts | 67° |
| 2026-05-06 19:04 | 53.51836 | 7.60040 | 17882 ft | 376 kts | 68° |
| 2026-05-06 19:04 | 53.52788 | 7.64078 | 17858 ft | 371 kts | 67° |
| 2026-05-06 19:05 | 53.53757 | 7.68167 | 17904 ft | 363 kts | 67° |
| 2026-05-06 19:05 | 53.54599 | 7.71834 | 17783 ft | 308 kts | 69° |
| 2026-05-06 19:05 | 53.55492 | 7.74736 | 17573 ft | 261 kts | 40° |
| 2026-05-06 19:05 | 53.57042 | 7.76699 | 17894 ft | 310 kts | 31° |
| 2026-05-06 19:06 | 53.58761 | 7.78720 | 17885 ft | 319 kts | 32° |
| 2026-05-06 19:06 | 53.60804 | 7.81283 | 18041 ft | 420 kts | 41° |
| 2026-05-06 19:06 | 53.63204 | 7.85206 | 18396 ft | 544 kts | 45° |
| 2026-05-06 19:06 | 53.65951 | 7.90159 | 18268 ft | 559 kts | 47° |
| 2026-05-06 19:07 | 53.66488 | 7.96073 | 18281 ft | 567 kts | 110° |
| 2026-05-06 19:07 | 53.64208 | 8.01663 | 17247 ft | 576 kts | 135° |
| 2026-05-06 19:07 | 53.61455 | 8.06623 | 16341 ft | 574 kts | 131° |
| 2026-05-06 19:07 | 53.58690 | 8.11342 | 15622 ft | 526 kts | 157° |
| 2026-05-06 19:08 | 53.57579 | 8.15187 | 8257 ft | 614 kts | 58° |
| 2026-05-06 19:08 | 53.61062 | 8.18633 | 10980 ft | 464 kts | 335° |
| 2026-05-06 19:08 | 53.60598 | 8.15399 | 17524 ft | 351 kts | 172° |
| 2026-05-06 19:08 | 53.58789 | 8.14708 | 16815 ft | 272 kts | 236° |
| 2026-05-06 19:09 | 53.57672 | 8.12454 | 16366 ft | 222 kts | 209° |
| 2026-05-06 19:09 | 53.56510 | 8.11485 | 16442 ft | 165 kts | 209° |
| 2026-05-06 19:09 | 53.55388 | 8.10628 | 16682 ft | 195 kts | 206° |
| 2026-05-06 19:09 | 53.54362 | 8.09885 | 16390 ft | 155 kts | 207° |
| 2026-05-06 19:10 | 53.53256 | 8.09072 | 16499 ft | 183 kts | 207° |
| 2026-05-06 19:10 | 53.52014 | 8.08134 | 16897 ft | 213 kts | 206° |
| 2026-05-06 19:10 | 53.50473 | 8.06749 | 17084 ft | 292 kts | 219° |
| 2026-05-06 19:10 | 53.48882 | 8.03866 | 17097 ft | 402 kts | 237° |
| 2026-05-06 19:11 | 53.47457 | 7.99565 | 17147 ft | 406 kts | 243° |
| 2026-05-06 19:11 | 53.46133 | 7.95265 | 17150 ft | 433 kts | 244° |
| 2026-05-06 19:11 | 53.44850 | 7.90721 | 17201 ft | 406 kts | 246° |
| 2026-05-06 19:11 | 53.43776 | 7.86484 | 17149 ft | 386 kts | 248° |
| 2026-05-06 19:12 | 53.42680 | 7.81926 | 17153 ft | 447 kts | 248° |
| 2026-05-06 19:12 | 53.41529 | 7.77116 | 17188 ft | 442 kts | 249° |
| 2026-05-06 19:12 | 53.40387 | 7.72348 | 17595 ft | 435 kts | 249° |
| 2026-05-06 19:12 | 53.39566 | 7.67946 | 18061 ft | 360 kts | 264° |
| 2026-05-06 19:13 | 53.39750 | 7.63863 | 17926 ft | 360 kts | 285° |
| 2026-05-06 19:13 | 53.41702 | 7.61677 | 15457 ft | 422 kts | 342° |
| 2026-05-06 19:13 | 53.44989 | 7.59729 | 14977 ft | 558 kts | 340° |
| 2026-05-06 19:13 | 53.48530 | 7.57089 | 14834 ft | 574 kts | 309° |
| 2026-05-06 19:14 | 53.51737 | 7.55889 | 13787 ft | 591 kts | 43° |
| 2026-05-06 19:14 | 53.51278 | 7.60487 | 18263 ft | 421 kts | 194° |
| 2026-05-06 19:14 | 53.50589 | 7.58452 | 16427 ft | 236 kts | 353° |
| 2026-05-06 19:14 | 53.51322 | 7.60076 | 15159 ft | 212 kts | 147° |
| 2026-05-06 19:15 | 53.50185 | 7.59672 | 14005 ft | 206 kts | 289° |
| 2026-05-06 19:15 | 53.51176 | 7.59357 | 13060 ft | 221 kts | 85° |
| 2026-05-06 19:15 | 53.50328 | 7.61167 | 11916 ft | 239 kts | 105° |
| 2026-05-06 19:15 | 53.51141 | 7.62290 | 12373 ft | 216 kts | 319° |
| 2026-05-06 19:16 | 53.52938 | 7.60742 | 13437 ft | 392 kts | 359° |
| 2026-05-06 19:16 | 53.54128 | 7.63560 | 12605 ft | 271 kts | 138° |
| 2026-05-06 19:16 | 53.52799 | 7.63246 | 11878 ft | 230 kts | 279° |
| 2026-05-06 19:16 | 53.53681 | 7.62856 | 10661 ft | 227 kts | 84° |
| 2026-05-06 19:17 | 53.53179 | 7.65554 | 11209 ft | 293 kts | 129° |
| 2026-05-06 19:17 | 53.51647 | 7.68351 | 12073 ft | 306 kts | 131° |
| 2026-05-06 19:17 | 53.50608 | 7.70574 | 12703 ft | 196 kts | 122° |
| 2026-05-06 19:17 | 53.49895 | 7.72490 | 13225 ft | 192 kts | 122° |
| 2026-05-06 19:18 | 53.49215 | 7.74292 | 13748 ft | 181 kts | 122° |
| 2026-05-06 19:18 | 53.48545 | 7.76077 | 14340 ft | 183 kts | 117° |
| 2026-05-06 19:18 | 53.48074 | 7.78083 | 15268 ft | 186 kts | 103° |
| 2026-05-06 19:18 | 53.47820 | 7.80492 | 16104 ft | 237 kts | 94° |
| 2026-05-06 19:19 | 53.47767 | 7.83711 | 17149 ft | 345 kts | 90° |
| 2026-05-06 19:19 | 53.47774 | 7.89210 | 18147 ft | 548 kts | 90° |
| 2026-05-06 19:19 | 53.47819 | 7.95140 | 18381 ft | 464 kts | 85° |
| 2026-05-06 19:19 | 53.48645 | 8.00004 | 19208 ft | 459 kts | 63° |
| 2026-05-06 19:20 | 53.50353 | 8.05007 | 19890 ft | 517 kts | 58° |
| 2026-05-06 19:20 | 53.52129 | 8.10058 | 19975 ft | 435 kts | 63° |
| 2026-05-06 19:20 | 53.53204 | 8.14440 | 19985 ft | 402 kts | 70° |
| 2026-05-06 19:20 | 53.54247 | 8.19312 | 20111 ft | 449 kts | 69° |
| 2026-05-06 19:21 | 53.55348 | 8.24047 | 20017 ft | 438 kts | 69° |
| 2026-05-06 19:21 | 53.56344 | 8.28634 | 20063 ft | 407 kts | 70° |
| 2026-05-06 19:21 | 53.57392 | 8.33425 | 19997 ft | 430 kts | 69° |
| 2026-05-06 19:21 | 53.58400 | 8.37966 | 19904 ft | 391 kts | 69° |
| 2026-05-06 19:22 | 53.59346 | 8.42268 | 19850 ft | 422 kts | 69° |
| 2026-05-06 19:22 | 53.60357 | 8.46853 | 19843 ft | 403 kts | 69° |
| 2026-05-06 19:22 | 53.61327 | 8.51140 | 19782 ft | 387 kts | 69° |
| 2026-05-06 19:22 | 53.62408 | 8.55922 | 19898 ft | 469 kts | 69° |
| 2026-05-06 19:23 | 53.63521 | 8.60782 | 20025 ft | 420 kts | 68° |
| 2026-05-06 19:23 | 53.64547 | 8.65257 | 20003 ft | 418 kts | 67° |
| 2026-05-06 19:23 | 53.65771 | 8.70284 | 20303 ft | 500 kts | 67° |
| 2026-05-06 19:23 | 53.66947 | 8.75149 | 20600 ft | 434 kts | 65° |
| 2026-05-06 19:24 | 53.68463 | 8.79375 | 20675 ft | 410 kts | 48° |
| 2026-05-06 19:24 | 53.70571 | 8.82382 | 20744 ft | 389 kts | 28° |
| 2026-05-06 19:24 | 53.73123 | 8.84012 | 20779 ft | 392 kts | 8° |
| 2026-05-06 19:24 | 53.75740 | 8.84173 | 20737 ft | 391 kts | 351° |
| 2026-05-06 19:25 | 53.78249 | 8.82968 | 20781 ft | 381 kts | 331° |
| 2026-05-06 19:25 | 53.80415 | 8.80519 | 20867 ft | 382 kts | 316° |
| 2026-05-06 19:25 | 53.82060 | 8.77172 | 20819 ft | 370 kts | 299° |
| 2026-05-06 19:25 | 53.83028 | 8.73289 | 20787 ft | 347 kts | 281° |
| 2026-05-06 19:26 | 53.83254 | 8.69081 | 20780 ft | 369 kts | 266° |
| 2026-05-06 19:26 | 53.82769 | 8.64845 | 20811 ft | 377 kts | 250° |
| 2026-05-06 19:26 | 53.82167 | 8.62108 | 20922 ft | 363 kts | 250° |
| 2026-05-06 19:26 | 53.81318 | 8.57959 | 20905 ft | 370 kts | 251° |
| 2026-05-06 19:27 | 53.80480 | 8.53847 | 20916 ft | 369 kts | 250° |
| 2026-05-06 19:27 | 53.79597 | 8.49767 | 20884 ft | 358 kts | 250° |
| 2026-05-06 19:27 | 53.78687 | 8.45740 | 20888 ft | 366 kts | 249° |
| 2026-05-06 19:27 | 53.77761 | 8.41833 | 20893 ft | 359 kts | 248° |
| 2026-05-06 19:28 | 53.76805 | 8.37801 | 20939 ft | 375 kts | 248° |
| 2026-05-06 19:28 | 53.75913 | 8.33755 | 20872 ft | 382 kts | 251° |
| 2026-05-06 19:28 | 53.75021 | 8.29825 | 20876 ft | 345 kts | 248° |
| 2026-05-06 19:28 | 53.74103 | 8.25859 | 20891 ft | 360 kts | 248° |
| 2026-05-06 19:29 | 53.73182 | 8.21864 | 20881 ft | 378 kts | 249° |
| 2026-05-06 19:29 | 53.72263 | 8.17894 | 20895 ft | 363 kts | 250° |
| 2026-05-06 19:29 | 53.71352 | 8.13941 | 20910 ft | 356 kts | 249° |
| 2026-05-06 19:29 | 53.70431 | 8.09933 | 20911 ft | 377 kts | 249° |
| 2026-05-06 19:30 | 53.69513 | 8.05936 | 20886 ft | 374 kts | 249° |
| 2026-05-06 19:30 | 53.68605 | 8.01980 | 20899 ft | 358 kts | 249° |
| 2026-05-06 19:30 | 53.67679 | 7.97945 | 20904 ft | 377 kts | 249° |
| 2026-05-06 19:30 | 53.66769 | 7.93966 | 20922 ft | 363 kts | 249° |
| 2026-05-06 19:31 | 53.65859 | 7.90004 | 20903 ft | 373 kts | 248° |
| 2026-05-06 19:31 | 53.64949 | 7.86034 | 20905 ft | 374 kts | 249° |
| 2026-05-06 19:31 | 53.62001 | 7.79239 | 20876 ft | 362 kts | 217° |
| 2026-05-06 19:32 | 53.59827 | 7.77281 | 20858 ft | 378 kts | 202° |
| 2026-05-06 19:32 | 53.57351 | 7.76402 | 20859 ft | 405 kts | 186° |
| 2026-05-06 19:32 | 53.54791 | 7.76752 | 20877 ft | 342 kts | 167° |
| 2026-05-06 19:32 | 53.52287 | 7.78463 | 20874 ft | 409 kts | 150° |
| 2026-05-06 19:33 | 53.50179 | 7.81505 | 20927 ft | 367 kts | 131° |
| 2026-05-06 19:33 | 53.48778 | 7.85371 | 20897 ft | 399 kts | 111° |
| 2026-05-06 19:33 | 53.48141 | 7.89784 | 20882 ft | 395 kts | 94° |
| 2026-05-06 19:33 | 53.48346 | 7.94310 | 20893 ft | 403 kts | 75° |
| 2026-05-06 19:34 | 53.49262 | 7.98587 | 20897 ft | 413 kts | 64° |
| 2026-05-06 19:34 | 53.50381 | 8.02863 | 20922 ft | 402 kts | 66° |
| 2026-05-06 19:34 | 53.51449 | 8.07085 | 20922 ft | 390 kts | 67° |
| 2026-05-06 19:34 | 53.52389 | 8.11317 | 20966 ft | 389 kts | 68° |
| 2026-05-06 19:35 | 53.53372 | 8.15583 | 20936 ft | 366 kts | 69° |
| 2026-05-06 19:35 | 53.54263 | 8.19844 | 21165 ft | 427 kts | 71° |
| 2026-05-06 19:35 | 53.55099 | 8.23951 | 21496 ft | 360 kts | 71° |
| 2026-05-06 19:35 | 53.55998 | 8.28363 | 21909 ft | 456 kts | 71° |
| 2026-05-06 19:36 | 53.57032 | 8.33569 | 22205 ft | 468 kts | 75° |
| 2026-05-06 19:36 | 53.57824 | 8.38946 | 22054 ft | 468 kts | 75° |
| 2026-05-06 19:36 | 53.58621 | 8.44250 | 21888 ft | 467 kts | 73° |
| 2026-05-06 19:36 | 53.59497 | 8.49483 | 21890 ft | 468 kts | 74° |
| 2026-05-06 19:37 | 53.60533 | 8.54641 | 21900 ft | 462 kts | 62° |
| 2026-05-06 19:37 | 53.62369 | 8.58870 | 21922 ft | 426 kts | 41° |
| 2026-05-06 19:37 | 53.64848 | 8.61508 | 21935 ft | 422 kts | 19° |
| 2026-05-06 19:37 | 53.67668 | 8.62702 | 21934 ft | 417 kts | 8° |
| 2026-05-06 19:38 | 53.70540 | 8.63132 | 21938 ft | 412 kts | 352° |
| 2026-05-06 19:38 | 53.73269 | 8.61827 | 21950 ft | 409 kts | 329° |
| 2026-05-06 19:38 | 53.75450 | 8.58855 | 21957 ft | 402 kts | 307° |
| 2026-05-06 19:38 | 53.76728 | 8.54708 | 21963 ft | 401 kts | 284° |
| 2026-05-06 19:39 | 53.77269 | 8.50102 | 21945 ft | 397 kts | 277° |
| 2026-05-06 19:39 | 53.77222 | 8.45471 | 21945 ft | 397 kts | 256° |
| 2026-05-06 19:39 | 53.76146 | 8.41168 | 21936 ft | 399 kts | 241° |
| 2026-05-06 19:39 | 53.74893 | 8.37004 | 21910 ft | 398 kts | 245° |
| 2026-05-06 19:40 | 53.73696 | 8.32846 | 21913 ft | 391 kts | 243° |
| 2026-05-06 19:40 | 53.72440 | 8.28765 | 21912 ft | 391 kts | 243° |
| 2026-05-06 19:40 | 53.71224 | 8.24648 | 21904 ft | 391 kts | 246° |
| 2026-05-06 19:40 | 53.70342 | 8.20281 | 21903 ft | 396 kts | 248° |
| 2026-05-06 19:41 | 53.69118 | 8.16149 | 21912 ft | 395 kts | 241° |
| 2026-05-06 19:41 | 53.67718 | 8.12158 | 21917 ft | 394 kts | 239° |
| 2026-05-06 19:41 | 53.66279 | 8.08218 | 21912 ft | 396 kts | 240° |
| 2026-05-06 19:41 | 53.65017 | 8.04109 | 21913 ft | 394 kts | 245° |
| 2026-05-06 19:42 | 53.63831 | 7.99948 | 21918 ft | 395 kts | 243° |
| 2026-05-06 19:42 | 53.62547 | 7.95864 | 21920 ft | 394 kts | 243° |
| 2026-05-06 19:42 | 53.61300 | 7.91752 | 21921 ft | 395 kts | 244° |
| 2026-05-06 19:42 | 53.60062 | 7.87625 | 21927 ft | 393 kts | 243° |
| 2026-05-06 19:43 | 53.58798 | 7.83524 | 21928 ft | 395 kts | 243° |
| 2026-05-06 19:43 | 53.57544 | 7.79417 | 21929 ft | 394 kts | 243° |
| 2026-05-06 19:43 | 53.56255 | 7.75361 | 21929 ft | 392 kts | 236° |
| 2026-05-06 19:43 | 53.54294 | 7.72193 | 21953 ft | 398 kts | 212° |
| 2026-05-06 19:44 | 53.51695 | 7.70610 | 21968 ft | 402 kts | 189° |
| 2026-05-06 19:44 | 53.48909 | 7.70574 | 21954 ft | 409 kts | 180° |
| 2026-05-06 19:44 | 53.46039 | 7.70779 | 21944 ft | 407 kts | 180° |
| 2026-05-06 19:44 | 53.43243 | 7.70909 | 21912 ft | 408 kts | 181° |
| 2026-05-06 19:45 | 53.40416 | 7.71038 | 21917 ft | 407 kts | 180° |
| 2026-05-06 19:45 | 53.37576 | 7.71201 | 21912 ft | 407 kts | 180° |
| 2026-05-06 19:45 | 53.34751 | 7.71344 | 21910 ft | 406 kts | 181° |
| 2026-05-06 19:45 | 53.31920 | 7.71482 | 21909 ft | 407 kts | 180° |
| 2026-05-06 19:46 | 53.29097 | 7.71631 | 21899 ft | 405 kts | 180° |
| 2026-05-06 19:46 | 53.26265 | 7.71781 | 21901 ft | 407 kts | 180° |
| 2026-05-06 19:46 | 53.23447 | 7.71923 | 21901 ft | 405 kts | 180° |
| 2026-05-06 19:46 | 53.20624 | 7.72066 | 21896 ft | 406 kts | 180° |
| 2026-05-06 19:47 | 53.17806 | 7.72212 | 21904 ft | 405 kts | 180° |
| 2026-05-06 19:47 | 53.14980 | 7.72355 | 21905 ft | 406 kts | 180° |
| 2026-05-06 19:47 | 53.12162 | 7.72498 | 21905 ft | 406 kts | 180° |
| 2026-05-06 19:47 | 53.09143 | 7.72643 | 21914 ft | 513 kts | 180° |
| 2026-05-06 19:48 | 53.05523 | 7.72834 | 21937 ft | 515 kts | 179° |
| 2026-05-06 19:48 | 53.01945 | 7.73024 | 21936 ft | 512 kts | 180° |
| 2026-05-06 19:48 | 52.98381 | 7.73191 | 21915 ft | 512 kts | 179° |
| 2026-05-06 19:48 | 52.94829 | 7.73378 | 21915 ft | 510 kts | 179° |
| 2026-05-06 19:49 | 52.91276 | 7.73558 | 21912 ft | 511 kts | 179° |
| 2026-05-06 19:49 | 52.87724 | 7.73732 | 21907 ft | 509 kts | 179° |
| 2026-05-06 19:49 | 52.84177 | 7.73914 | 21904 ft | 511 kts | 179° |
| 2026-05-06 19:49 | 52.80626 | 7.74091 | 21903 ft | 510 kts | 179° |
| 2026-05-06 19:50 | 52.77123 | 7.74266 | 21901 ft | 511 kts | 179° |
| 2026-05-06 19:50 | 52.73569 | 7.74444 | 21897 ft | 510 kts | 179° |
| 2026-05-06 19:50 | 52.70031 | 7.74621 | 21898 ft | 510 kts | 179° |
| 2026-05-06 19:50 | 52.66475 | 7.74798 | 21898 ft | 510 kts | 179° |
| 2026-05-06 19:51 | 52.62935 | 7.74974 | 21901 ft | 510 kts | 179° |
| 2026-05-06 19:51 | 52.59383 | 7.75150 | 21898 ft | 511 kts | 179° |
| 2026-05-06 19:51 | 52.55842 | 7.75319 | 21899 ft | 509 kts | 180° |
| 2026-05-06 19:51 | 52.52295 | 7.75581 | 21899 ft | 512 kts | 175° |
| 2026-05-06 19:52 | 52.48759 | 7.76321 | 21894 ft | 511 kts | 174° |
| 2026-05-06 19:52 | 52.45220 | 7.76860 | 21898 ft | 512 kts | 176° |
| 2026-05-06 19:52 | 52.41670 | 7.77430 | 21895 ft | 511 kts | 175° |
| 2026-05-06 19:52 | 52.38135 | 7.78024 | 21895 ft | 511 kts | 176° |
| 2026-05-06 19:53 | 52.34587 | 7.78355 | 21896 ft | 511 kts | 179° |
| 2026-05-06 19:53 | 52.31042 | 7.78210 | 21896 ft | 508 kts | 187° |
| 2026-05-06 19:53 | 52.27531 | 7.77426 | 21900 ft | 510 kts | 189° |
| 2026-05-06 19:53 | 52.24005 | 7.76853 | 21900 ft | 509 kts | 185° |
| 2026-05-06 19:54 | 52.20469 | 7.76341 | 21906 ft | 510 kts | 187° |
| 2026-05-06 19:54 | 52.16948 | 7.75724 | 21905 ft | 509 kts | 187° |
| 2026-05-06 19:54 | 52.13460 | 7.75209 | 21905 ft | 510 kts | 186° |
| 2026-05-06 19:54 | 52.09927 | 7.74641 | 21905 ft | 509 kts | 187° |
| 2026-05-06 19:55 | 52.06400 | 7.74076 | 21904 ft | 510 kts | 187° |
| 2026-05-06 19:55 | 52.02866 | 7.73531 | 21875 ft | 509 kts | 187° |
| 2026-05-06 19:55 | 51.99313 | 7.72964 | 21880 ft | 513 kts | 187° |
| 2026-05-06 19:55 | 51.95774 | 7.72409 | 21881 ft | 511 kts | 187° |
| 2026-05-06 19:56 | 51.92228 | 7.71855 | 21879 ft | 512 kts | 187° |
| 2026-05-06 19:56 | 51.88708 | 7.71115 | 21878 ft | 509 kts | 195° |
| 2026-05-06 19:56 | 51.85351 | 7.69280 | 21884 ft | 510 kts | 202° |
| 2026-05-06 19:56 | 51.82093 | 7.67069 | 21881 ft | 508 kts | 205° |
| 2026-05-06 19:57 | 51.78854 | 7.64742 | 21873 ft | 509 kts | 205° |
| 2026-05-06 19:57 | 51.75548 | 7.62675 | 21877 ft | 512 kts | 199° |
| 2026-05-06 19:57 | 51.72167 | 7.60919 | 21879 ft | 510 kts | 200° |
| 2026-05-06 19:57 | 51.68828 | 7.58935 | 21877 ft | 511 kts | 201° |
| 2026-05-06 19:58 | 51.65470 | 7.57047 | 21877 ft | 511 kts | 200° |
| 2026-05-06 19:58 | 51.62110 | 7.55199 | 21878 ft | 511 kts | 198° |
| 2026-05-06 19:58 | 51.58607 | 7.54298 | 21880 ft | 514 kts | 180° |